Pillar Point, New York
Current Conditions -  °F | °C
As of 7:56 PM on Monday 20 Oct 2014 (Local Time) from KART Reporting Station
Light Rain Light Rain  
Wind Chill: 51°   Ceiling: 7000
Heat Index: 51°   Visibility: 10mi
Dew Point: 40°   Wind: 6mph
Humidity: 66%   Direction: 160°SSE
Pressure: 29.87"   Gusts: NA
Location:  44.0116°N, 76.0789°W
Report Text: KART 202356Z AUTO 16005KT 10SM -RA SCT050 OVC070 11/04 A2987 RMK AO2 RAE04B45 SLP115 P0000 60000 T01060044 10128 20106 52002
Loading
Personal Weather Stations






























Interactive Weather Map
Tropical Storm Tracking
New forecast layout! Learn more

10-Day Weather Forecast

Advertisements
Track Severe Weather on mobile